sensor_id;sensor_type;location;lat;lon;timestamp;P1;durP1;ratioP1;P2;durP2;ratioP2
39314;SDS011;28703;44.412;11.918;2023-09-12T00:02:05;1999.90;;;999.90;;
39314;SDS011;28703;44.412;11.918;2023-09-12T00:04:31;1999.90;;;999.90;;
39314;SDS011;28703;44.412;11.918;2023-09-12T00:06:57;1999.90;;;999.90;;
39314;SDS011;28703;44.412;11.918;2023-09-12T00:09:23;1999.90;;;999.90;;
39314;SDS011;28703;44.412;11.918;2023-09-12T00:11:48;1999.90;;;999.90;;
39314;SDS011;28703;44.412;11.918;2023-09-12T00:14:15;1999.90;;;999.90;;
39314;SDS011;28703;44.412;11.918;2023-09-12T00:16:41;1999.90;;;999.90;;
39314;SDS011;28703;44.412;11.918;2023-09-12T00:19:07;1999.90;;;999.90;;
39314;SDS011;28703;44.412;11.918;2023-09-12T00:21:33;1999.90;;;999.90;;
39314;SDS011;28703;44.412;11.918;2023-09-12T00:23:59;1999.90;;;999.90;;
39314;SDS011;28703;44.412;11.918;2023-09-12T00:26:25;1999.90;;;999.90;;
39314;SDS011;28703;44.412;11.918;2023-09-12T00:28:51;1999.90;;;999.90;;
39314;SDS011;28703;44.412;11.918;2023-09-12T00:31:17;1999.90;;;999.90;;
39314;SDS011;28703;44.412;11.918;2023-09-12T00:33:42;1999.90;;;999.90;;
39314;SDS011;28703;44.412;11.918;2023-09-12T00:36:08;1999.90;;;999.90;;
39314;SDS011;28703;44.412;11.918;2023-09-12T00:38:34;1999.90;;;999.90;;
39314;SDS011;28703;44.412;11.918;2023-09-12T00:41:00;1999.90;;;999.90;;
39314;SDS011;28703;44.412;11.918;2023-09-12T00:43:26;1999.90;;;999.90;;
39314;SDS011;28703;44.412;11.918;2023-09-12T00:45:52;1999.90;;;999.90;;
39314;SDS011;28703;44.412;11.918;2023-09-12T00:48:18;1999.90;;;999.90;;
39314;SDS011;28703;44.412;11.918;2023-09-12T00:50:48;1999.90;;;999.90;;
39314;SDS011;28703;44.412;11.918;2023-09-12T00:53:16;1999.90;;;999.90;;
39314;SDS011;28703;44.412;11.918;2023-09-12T00:55:51;1999.90;;;999.90;;
39314;SDS011;28703;44.412;11.918;2023-09-12T00:58:22;1999.90;;;999.90;;
39314;SDS011;28703;44.412;11.918;2023-09-12T01:00:49;1999.90;;;999.90;;
39314;SDS011;28703;44.412;11.918;2023-09-12T01:03:15;1999.90;;;999.90;;
39314;SDS011;28703;44.412;11.918;2023-09-12T01:05:41;1999.90;;;999.90;;
39314;SDS011;28703;44.412;11.918;2023-09-12T01:08:08;1999.90;;;999.90;;
39314;SDS011;28703;44.412;11.918;2023-09-12T01:10:34;1999.90;;;999.90;;
39314;SDS011;28703;44.412;11.918;2023-09-12T01:13:01;1999.90;;;999.90;;
39314;SDS011;28703;44.412;11.918;2023-09-12T01:15:27;1999.90;;;999.90;;
39314;SDS011;28703;44.412;11.918;2023-09-12T01:17:55;1999.90;;;999.90;;
39314;SDS011;28703;44.412;11.918;2023-09-12T01:20:24;1999.90;;;999.90;;
39314;SDS011;28703;44.412;11.918;2023-09-12T01:23:55;1999.90;;;999.90;;
39314;SDS011;28703;44.412;11.918;2023-09-12T01:28:54;1999.90;;;999.90;;
39314;SDS011;28703;44.412;11.918;2023-09-12T01:31:22;1970.90;;;996.83;;
39314;SDS011;28703;44.412;11.918;2023-09-12T01:33:54;1999.90;;;999.90;;
39314;SDS011;28703;44.412;11.918;2023-09-12T01:36:21;1999.90;;;999.90;;
39314;SDS011;28703;44.412;11.918;2023-09-12T01:38:47;1999.90;;;999.90;;
39314;SDS011;28703;44.412;11.918;2023-09-12T01:41:13;1999.90;;;999.90;;
39314;SDS011;28703;44.412;11.918;2023-09-12T01:43:39;1999.90;;;999.90;;
39314;SDS011;28703;44.412;11.918;2023-09-12T01:46:07;1999.90;;;999.90;;
39314;SDS011;28703;44.412;11.918;2023-09-12T01:48:34;1999.90;;;999.90;;
39314;SDS011;28703;44.412;11.918;2023-09-12T01:51:02;1999.90;;;999.90;;
39314;SDS011;28703;44.412;11.918;2023-09-12T01:53:30;1999.90;;;999.90;;
39314;SDS011;28703;44.412;11.918;2023-09-12T01:55:58;1999.90;;;999.90;;
39314;SDS011;28703;44.412;11.918;2023-09-12T01:58:25;1999.90;;;999.90;;
39314;SDS011;28703;44.412;11.918;2023-09-12T02:00:51;1999.90;;;999.90;;
39314;SDS011;28703;44.412;11.918;2023-09-12T02:03:19;1999.90;;;999.90;;
39314;SDS011;28703;44.412;11.918;2023-09-12T02:05:45;1999.90;;;999.90;;
39314;SDS011;28703;44.412;11.918;2023-09-12T02:08:11;1999.90;;;999.90;;
39314;SDS011;28703;44.412;11.918;2023-09-12T02:10:40;1999.90;;;999.90;;
39314;SDS011;28703;44.412;11.918;2023-09-12T02:13:05;1999.90;;;999.90;;
39314;SDS011;28703;44.412;11.918;2023-09-12T02:15:31;1999.90;;;999.90;;
39314;SDS011;28703;44.412;11.918;2023-09-12T02:17:57;1999.28;;;997.72;;
39314;SDS011;28703;44.412;11.918;2023-09-12T02:20:23;1999.90;;;999.90;;
39314;SDS011;28703;44.412;11.918;2023-09-12T02:22:49;1999.90;;;999.90;;
39314;SDS011;28703;44.412;11.918;2023-09-12T02:25:16;1999.90;;;999.90;;
39314;SDS011;28703;44.412;11.918;2023-09-12T02:27:42;1999.90;;;999.55;;
39314;SDS011;28703;44.412;11.918;2023-09-12T02:30:08;1999.90;;;998.55;;
39314;SDS011;28703;44.412;11.918;2023-09-12T02:32:34;1997.28;;;996.85;;
39314;SDS011;28703;44.412;11.918;2023-09-12T02:35:00;1999.90;;;999.90;;
39314;SDS011;28703;44.412;11.918;2023-09-12T02:37:26;1993.47;;;995.45;;
39314;SDS011;28703;44.412;11.918;2023-09-12T02:39:52;1999.90;;;999.90;;
39314;SDS011;28703;44.412;11.918;2023-09-12T02:42:18;1999.90;;;999.20;;
39314;SDS011;28703;44.412;11.918;2023-09-12T02:44:44;1999.90;;;999.90;;
39314;SDS011;28703;44.412;11.918;2023-09-12T02:47:10;1999.90;;;999.90;;
39314;SDS011;28703;44.412;11.918;2023-09-12T02:49:35;1994.32;;;990.88;;
39314;SDS011;28703;44.412;11.918;2023-09-12T02:52:01;1999.90;;;999.90;;
39314;SDS011;28703;44.412;11.918;2023-09-12T02:54:27;1877.88;;;987.88;;
39314;SDS011;28703;44.412;11.918;2023-09-12T02:56:53;1999.90;;;999.90;;
39314;SDS011;28703;44.412;11.918;2023-09-12T02:59:19;1999.90;;;999.90;;
39314;SDS011;28703;44.412;11.918;2023-09-12T03:01:45;1995.38;;;993.92;;
39314;SDS011;28703;44.412;11.918;2023-09-12T03:04:11;1983.40;;;990.83;;
39314;SDS011;28703;44.412;11.918;2023-09-12T03:06:36;1999.90;;;988.78;;
39314;SDS011;28703;44.412;11.918;2023-09-12T03:09:03;1381.22;;;910.92;;
39314;SDS011;28703;44.412;11.918;2023-09-12T03:11:29;1999.90;;;999.90;;
39314;SDS011;28703;44.412;11.918;2023-09-12T03:13:55;1999.90;;;999.90;;
39314;SDS011;28703;44.412;11.918;2023-09-12T03:16:21;1864.93;;;969.88;;
39314;SDS011;28703;44.412;11.918;2023-09-12T03:18:49;1767.00;;;942.90;;
39314;SDS011;28703;44.412;11.918;2023-09-12T03:21:15;1528.57;;;930.75;;
39314;SDS011;28703;44.412;11.918;2023-09-12T03:23:41;1784.90;;;959.75;;
39314;SDS011;28703;44.412;11.918;2023-09-12T03:26:07;1988.25;;;992.75;;
39314;SDS011;28703;44.412;11.918;2023-09-12T03:28:34;1950.22;;;990.30;;
39314;SDS011;28703;44.412;11.918;2023-09-12T03:31:05;1999.90;;;999.90;;
39314;SDS011;28703;44.412;11.918;2023-09-12T03:33:39;1739.22;;;944.03;;
39314;SDS011;28703;44.412;11.918;2023-09-12T03:36:06;1260.82;;;889.28;;
39314;SDS011;28703;44.412;11.918;2023-09-12T03:38:33;1700.00;;;944.70;;
39314;SDS011;28703;44.412;11.918;2023-09-12T03:41:00;1719.80;;;939.50;;
39314;SDS011;28703;44.412;11.918;2023-09-12T03:43:26;1664.00;;;941.30;;
39314;SDS011;28703;44.412;11.918;2023-09-12T03:45:53;1635.68;;;935.92;;
39314;SDS011;28703;44.412;11.918;2023-09-12T03:48:19;1464.90;;;909.92;;
39314;SDS011;28703;44.412;11.918;2023-09-12T03:50:45;1999.90;;;999.90;;
39314;SDS011;28703;44.412;11.918;2023-09-12T03:53:13;1898.50;;;972.15;;
39314;SDS011;28703;44.412;11.918;2023-09-12T03:55:40;1631.63;;;930.42;;
39314;SDS011;28703;44.412;11.918;2023-09-12T03:58:06;1860.53;;;948.55;;
39314;SDS011;28703;44.412;11.918;2023-09-12T04:00:32;1661.53;;;927.15;;
39314;SDS011;28703;44.412;11.918;2023-09-12T04:02:58;1325.05;;;891.08;;
39314;SDS011;28703;44.412;11.918;2023-09-12T04:05:25;1424.68;;;909.33;;
39314;SDS011;28703;44.412;11.918;2023-09-12T04:07:51;1646.97;;;919.15;;
39314;SDS011;28703;44.412;11.918;2023-09-12T04:10:18;1938.25;;;974.10;;
39314;SDS011;28703;44.412;11.918;2023-09-12T04:12:45;1570.95;;;916.85;;
39314;SDS011;28703;44.412;11.918;2023-09-12T04:15:11;1849.75;;;958.05;;
39314;SDS011;28703;44.412;11.918;2023-09-12T04:17:38;1567.53;;;911.85;;
39314;SDS011;28703;44.412;11.918;2023-09-12T04:20:05;1778.53;;;953.13;;
39314;SDS011;28703;44.412;11.918;2023-09-12T04:22:32;1409.70;;;902.80;;
39314;SDS011;28703;44.412;11.918;2023-09-12T04:24:59;1721.85;;;943.45;;
39314;SDS011;28703;44.412;11.918;2023-09-12T04:27:24;1557.75;;;919.78;;
39314;SDS011;28703;44.412;11.918;2023-09-12T04:29:51;1662.75;;;941.10;;
39314;SDS011;28703;44.412;11.918;2023-09-12T04:32:18;1381.57;;;899.78;;
39314;SDS011;28703;44.412;11.918;2023-09-12T04:34:49;1418.22;;;900.08;;
39314;SDS011;28703;44.412;11.918;2023-09-12T04:37:16;1819.60;;;965.28;;
39314;SDS011;28703;44.412;11.918;2023-09-12T04:39:42;1780.70;;;965.75;;
39314;SDS011;28703;44.412;11.918;2023-09-12T04:42:08;1839.90;;;975.08;;
39314;SDS011;28703;44.412;11.918;2023-09-12T04:44:38;1899.28;;;982.83;;
39314;SDS011;28703;44.412;11.918;2023-09-12T04:47:05;1268.50;;;871.70;;
39314;SDS011;28703;44.412;11.918;2023-09-12T04:49:31;1874.95;;;980.58;;
39314;SDS011;28703;44.412;11.918;2023-09-12T04:51:57;1245.72;;;878.78;;
39314;SDS011;28703;44.412;11.918;2023-09-12T04:54:23;1961.90;;;994.58;;
39314;SDS011;28703;44.412;11.918;2023-09-12T04:56:49;1187.82;;;897.03;;
39314;SDS011;28703;44.412;11.918;2023-09-12T04:59:15;1833.05;;;969.83;;
39314;SDS011;28703;44.412;11.918;2023-09-12T05:01:41;1371.15;;;911.28;;
39314;SDS011;28703;44.412;11.918;2023-09-12T05:04:08;1725.13;;;968.90;;
39314;SDS011;28703;44.412;11.918;2023-09-12T05:06:35;1225.07;;;889.75;;
39314;SDS011;28703;44.412;11.918;2023-09-12T05:09:01;1940.88;;;994.40;;
39314;SDS011;28703;44.412;11.918;2023-09-12T05:11:28;1911.00;;;989.35;;
39314;SDS011;28703;44.412;11.918;2023-09-12T05:13:54;1887.40;;;987.22;;
39314;SDS011;28703;44.412;11.918;2023-09-12T05:16:21;1989.88;;;998.08;;
39314;SDS011;28703;44.412;11.918;2023-09-12T05:18:46;1440.45;;;928.05;;
39314;SDS011;28703;44.412;11.918;2023-09-12T05:21:14;1922.32;;;993.00;;
39314;SDS011;28703;44.412;11.918;2023-09-12T05:23:41;1905.57;;;988.53;;
39314;SDS011;28703;44.412;11.918;2023-09-12T05:26:07;1990.95;;;996.67;;
39314;SDS011;28703;44.412;11.918;2023-09-12T05:28:34;1997.47;;;998.83;;
39314;SDS011;28703;44.412;11.918;2023-09-12T05:31:00;1995.75;;;999.90;;
39314;SDS011;28703;44.412;11.918;2023-09-12T05:33:27;1999.90;;;999.90;;
39314;SDS011;28703;44.412;11.918;2023-09-12T05:36:02;1817.93;;;988.05;;
39314;SDS011;28703;44.412;11.918;2023-09-12T05:38:28;1969.60;;;988.10;;
39314;SDS011;28703;44.412;11.918;2023-09-12T05:41:00;1923.53;;;974.30;;
39314;SDS011;28703;44.412;11.918;2023-09-12T05:43:28;1828.50;;;969.05;;
39314;SDS011;28703;44.412;11.918;2023-09-12T05:45:54;1911.32;;;975.38;;
39314;SDS011;28703;44.412;11.918;2023-09-12T05:48:23;1660.97;;;935.88;;
39314;SDS011;28703;44.412;11.918;2023-09-12T05:50:48;1977.70;;;989.60;;
39314;SDS011;28703;44.412;11.918;2023-09-12T05:53:21;1999.32;;;988.53;;
39314;SDS011;28703;44.412;11.918;2023-09-12T05:55:46;1951.13;;;980.15;;
39314;SDS011;28703;44.412;11.918;2023-09-12T05:58:12;1699.93;;;936.42;;
39314;SDS011;28703;44.412;11.918;2023-09-12T06:00:38;1782.95;;;956.40;;
39314;SDS011;28703;44.412;11.918;2023-09-12T06:03:14;1638.72;;;928.42;;
39314;SDS011;28703;44.412;11.918;2023-09-12T06:05:53;1730.88;;;942.70;;
39314;SDS011;28703;44.412;11.918;2023-09-12T06:08:22;1843.80;;;965.78;;
39314;SDS011;28703;44.412;11.918;2023-09-12T06:10:56;1485.50;;;903.42;;
39314;SDS011;28703;44.412;11.918;2023-09-12T06:13:25;1941.53;;;976.17;;
39314;SDS011;28703;44.412;11.918;2023-09-12T06:18:35;1028.28;;;822.15;;
39314;SDS011;28703;44.412;11.918;2023-09-12T06:21:29;1437.32;;;909.55;;
39314;SDS011;28703;44.412;11.918;2023-09-12T06:24:13;1519.80;;;920.28;;
39314;SDS011;28703;44.412;11.918;2023-09-12T06:26:52;1519.40;;;927.50;;
39314;SDS011;28703;44.412;11.918;2023-09-12T06:29:18;1755.22;;;954.95;;
39314;SDS011;28703;44.412;11.918;2023-09-12T06:31:47;1829.85;;;971.70;;
39314;SDS011;28703;44.412;11.918;2023-09-12T06:34:13;1886.97;;;982.17;;
39314;SDS011;28703;44.412;11.918;2023-09-12T06:36:39;1776.57;;;982.50;;
39314;SDS011;28703;44.412;11.918;2023-09-12T06:39:10;1851.13;;;981.77;;
39314;SDS011;28703;44.412;11.918;2023-09-12T06:41:36;1983.15;;;996.95;;
39314;SDS011;28703;44.412;11.918;2023-09-12T06:44:04;1939.18;;;996.60;;
39314;SDS011;28703;44.412;11.918;2023-09-12T06:46:32;1999.90;;;998.40;;
39314;SDS011;28703;44.412;11.918;2023-09-12T06:49:01;1990.63;;;999.58;;
39314;SDS011;28703;44.412;11.918;2023-09-12T06:51:30;1972.95;;;999.90;;
39314;SDS011;28703;44.412;11.918;2023-09-12T06:53:56;1999.90;;;999.90;;
39314;SDS011;28703;44.412;11.918;2023-09-12T06:56:28;1999.90;;;999.90;;
39314;SDS011;28703;44.412;11.918;2023-09-12T06:58:54;1999.90;;;999.90;;
39314;SDS011;28703;44.412;11.918;2023-09-12T07:01:20;1999.90;;;999.90;;
39314;SDS011;28703;44.412;11.918;2023-09-12T07:03:46;1999.90;;;999.90;;
39314;SDS011;28703;44.412;11.918;2023-09-12T07:06:15;1999.90;;;999.90;;
39314;SDS011;28703;44.412;11.918;2023-09-12T07:08:41;1999.90;;;999.90;;
39314;SDS011;28703;44.412;11.918;2023-09-12T07:11:09;1999.90;;;999.90;;
39314;SDS011;28703;44.412;11.918;2023-09-12T07:13:35;1999.90;;;999.90;;
39314;SDS011;28703;44.412;11.918;2023-09-12T07:16:01;1999.90;;;999.90;;
39314;SDS011;28703;44.412;11.918;2023-09-12T07:18:29;1998.30;;;999.90;;
39314;SDS011;28703;44.412;11.918;2023-09-12T07:21:01;1999.90;;;999.90;;
39314;SDS011;28703;44.412;11.918;2023-09-12T07:25:55;1954.45;;;996.47;;
39314;SDS011;28703;44.412;11.918;2023-09-12T07:28:25;1974.60;;;999.90;;
39314;SDS011;28703;44.412;11.918;2023-09-12T07:30:52;1639.60;;;990.28;;
39314;SDS011;28703;44.412;11.918;2023-09-12T07:33:18;1999.90;;;999.90;;
39314;SDS011;28703;44.412;11.918;2023-09-12T07:35:45;1999.90;;;999.90;;
39314;SDS011;28703;44.412;11.918;2023-09-12T07:38:12;1999.90;;;999.90;;
39314;SDS011;28703;44.412;11.918;2023-09-12T07:40:41;1999.90;;;999.90;;
39314;SDS011;28703;44.412;11.918;2023-09-12T07:43:07;1999.90;;;999.90;;
39314;SDS011;28703;44.412;11.918;2023-09-12T07:45:34;1969.32;;;998.78;;
39314;SDS011;28703;44.412;11.918;2023-09-12T07:48:06;1999.90;;;999.90;;
39314;SDS011;28703;44.412;11.918;2023-09-12T07:50:33;1999.90;;;999.90;;
39314;SDS011;28703;44.412;11.918;2023-09-12T07:52:59;1999.90;;;999.90;;
39314;SDS011;28703;44.412;11.918;2023-09-12T07:55:26;1999.90;;;999.90;;
39314;SDS011;28703;44.412;11.918;2023-09-12T07:57:56;1999.90;;;999.90;;
39314;SDS011;28703;44.412;11.918;2023-09-12T08:00:21;1999.90;;;999.90;;
39314;SDS011;28703;44.412;11.918;2023-09-12T08:02:48;1999.90;;;999.90;;
39314;SDS011;28703;44.412;11.918;2023-09-12T08:05:15;1999.90;;;999.90;;
39314;SDS011;28703;44.412;11.918;2023-09-12T08:07:41;1999.90;;;999.90;;
39314;SDS011;28703;44.412;11.918;2023-09-12T08:10:07;1999.90;;;999.90;;
39314;SDS011;28703;44.412;11.918;2023-09-12T08:12:33;1999.90;;;999.90;;
39314;SDS011;28703;44.412;11.918;2023-09-12T08:15:03;1999.90;;;999.90;;
39314;SDS011;28703;44.412;11.918;2023-09-12T08:17:29;1999.90;;;999.90;;
39314;SDS011;28703;44.412;11.918;2023-09-12T08:19:55;1999.90;;;999.90;;
39314;SDS011;28703;44.412;11.918;2023-09-12T08:22:21;1999.90;;;999.90;;
39314;SDS011;28703;44.412;11.918;2023-09-12T08:24:47;1999.90;;;999.90;;
39314;SDS011;28703;44.412;11.918;2023-09-12T08:27:13;1999.90;;;999.90;;
39314;SDS011;28703;44.412;11.918;2023-09-12T08:29:39;1999.90;;;999.90;;
39314;SDS011;28703;44.412;11.918;2023-09-12T08:32:06;1999.90;;;999.90;;
39314;SDS011;28703;44.412;11.918;2023-09-12T08:34:32;1999.90;;;999.90;;
39314;SDS011;28703;44.412;11.918;2023-09-12T08:36:58;1999.90;;;999.90;;
39314;SDS011;28703;44.412;11.918;2023-09-12T08:39:25;1999.90;;;999.90;;
39314;SDS011;28703;44.412;11.918;2023-09-12T08:41:52;1999.90;;;999.90;;
39314;SDS011;28703;44.412;11.918;2023-09-12T08:44:22;1999.90;;;999.90;;
39314;SDS011;28703;44.412;11.918;2023-09-12T08:46:48;1999.90;;;999.90;;
39314;SDS011;28703;44.412;11.918;2023-09-12T08:49:35;1999.90;;;999.90;;
39314;SDS011;28703;44.412;11.918;2023-09-12T08:52:03;1999.90;;;999.90;;
39314;SDS011;28703;44.412;11.918;2023-09-12T08:54:32;1999.90;;;999.90;;
39314;SDS011;28703;44.412;11.918;2023-09-12T08:56:59;1999.90;;;999.90;;
39314;SDS011;28703;44.412;11.918;2023-09-12T08:59:28;1999.90;;;999.90;;
39314;SDS011;28703;44.412;11.918;2023-09-12T09:01:56;1999.90;;;999.90;;
39314;SDS011;28703;44.412;11.918;2023-09-12T09:04:23;1999.90;;;999.90;;
39314;SDS011;28703;44.412;11.918;2023-09-12T09:06:53;1999.90;;;999.90;;
39314;SDS011;28703;44.412;11.918;2023-09-12T09:09:20;1999.90;;;999.90;;
39314;SDS011;28703;44.412;11.918;2023-09-12T09:11:47;1999.90;;;999.90;;
39314;SDS011;28703;44.412;11.918;2023-09-12T09:14:13;1999.90;;;999.90;;
39314;SDS011;28703;44.412;11.918;2023-09-12T09:16:39;1999.90;;;999.90;;
39314;SDS011;28703;44.412;11.918;2023-09-12T09:19:05;1999.90;;;999.90;;
39314;SDS011;28703;44.412;11.918;2023-09-12T09:21:35;1999.90;;;999.90;;
39314;SDS011;28703;44.412;11.918;2023-09-12T09:24:04;1999.90;;;999.90;;
39314;SDS011;28703;44.412;11.918;2023-09-12T09:27:07;1999.90;;;999.90;;
39314;SDS011;28703;44.412;11.918;2023-09-12T09:29:27;1999.90;;;999.90;;
39314;SDS011;28703;44.412;11.918;2023-09-12T09:31:58;1999.90;;;999.90;;
39314;SDS011;28703;44.412;11.918;2023-09-12T09:34:26;1999.90;;;999.90;;
39314;SDS011;28703;44.412;11.918;2023-09-12T09:36:56;1999.90;;;999.90;;
39314;SDS011;28703;44.412;11.918;2023-09-12T09:39:23;1999.90;;;999.90;;
39314;SDS011;28703;44.412;11.918;2023-09-12T09:41:51;1999.90;;;999.90;;
39314;SDS011;28703;44.412;11.918;2023-09-12T09:44:22;1999.90;;;999.90;;
39314;SDS011;28703;44.412;11.918;2023-09-12T09:46:52;1999.90;;;999.90;;
39314;SDS011;28703;44.412;11.918;2023-09-12T09:49:25;1999.90;;;999.90;;
39314;SDS011;28703;44.412;11.918;2023-09-12T09:51:51;1999.90;;;999.90;;
39314;SDS011;28703;44.412;11.918;2023-09-12T09:54:21;1999.90;;;999.90;;
39314;SDS011;28703;44.412;11.918;2023-09-12T09:56:53;1999.90;;;999.90;;
39314;SDS011;28703;44.412;11.918;2023-09-12T09:59:21;1999.90;;;999.90;;
39314;SDS011;28703;44.412;11.918;2023-09-12T10:01:49;1999.90;;;999.90;;
39314;SDS011;28703;44.412;11.918;2023-09-12T10:04:18;1999.90;;;999.90;;
39314;SDS011;28703;44.412;11.918;2023-09-12T10:06:45;1999.90;;;999.90;;
39314;SDS011;28703;44.412;11.918;2023-09-12T10:09:12;1999.90;;;999.90;;
39314;SDS011;28703;44.412;11.918;2023-09-12T10:11:39;1999.90;;;999.90;;
39314;SDS011;28703;44.412;11.918;2023-09-12T10:14:06;1999.90;;;999.90;;
39314;SDS011;28703;44.412;11.918;2023-09-12T10:16:34;1999.90;;;999.90;;
39314;SDS011;28703;44.412;11.918;2023-09-12T10:24:34;1999.90;;;999.90;;
39314;SDS011;28703;44.412;11.918;2023-09-12T10:27:04;1887.95;;;999.90;;
39314;SDS011;28703;44.412;11.918;2023-09-12T10:29:31;1925.00;;;999.90;;
39314;SDS011;28703;44.412;11.918;2023-09-12T10:31:57;1999.90;;;999.90;;
39314;SDS011;28703;44.412;11.918;2023-09-12T10:34:24;1997.72;;;999.90;;
39314;SDS011;28703;44.412;11.918;2023-09-12T10:36:51;1949.03;;;999.90;;
39314;SDS011;28703;44.412;11.918;2023-09-12T10:39:20;1891.82;;;999.90;;
39314;SDS011;28703;44.412;11.918;2023-09-12T10:41:48;1883.53;;;999.90;;
39314;SDS011;28703;44.412;11.918;2023-09-12T10:44:17;1862.65;;;999.90;;
39314;SDS011;28703;44.412;11.918;2023-09-12T10:46:43;1856.80;;;999.90;;
39314;SDS011;28703;44.412;11.918;2023-09-12T10:49:11;1715.22;;;999.90;;
39314;SDS011;28703;44.412;11.918;2023-09-12T10:51:41;1871.47;;;999.90;;
39314;SDS011;28703;44.412;11.918;2023-09-12T10:54:15;1901.32;;;999.90;;
39314;SDS011;28703;44.412;11.918;2023-09-12T10:57:01;1822.43;;;999.90;;
39314;SDS011;28703;44.412;11.918;2023-09-12T10:59:31;1828.63;;;999.90;;
39314;SDS011;28703;44.412;11.918;2023-09-12T11:05:01;1997.43;;;999.90;;
39314;SDS011;28703;44.412;11.918;2023-09-12T11:12:44;1671.30;;;999.90;;
39314;SDS011;28703;44.412;11.918;2023-09-12T11:15:11;1596.15;;;999.90;;
39314;SDS011;28703;44.412;11.918;2023-09-12T11:17:37;1427.30;;;996.10;;
39314;SDS011;28703;44.412;11.918;2023-09-12T11:20:04;1385.95;;;994.58;;
39314;SDS011;28703;44.412;11.918;2023-09-12T11:22:39;1420.28;;;996.67;;
39314;SDS011;28703;44.412;11.918;2023-09-12T11:25:20;1449.68;;;998.22;;
39314;SDS011;28703;44.412;11.918;2023-09-12T11:30:19;1390.50;;;991.63;;
39314;SDS011;28703;44.412;11.918;2023-09-12T11:35:18;1370.75;;;980.90;;
39314;SDS011;28703;44.412;11.918;2023-09-12T11:37:48;1306.82;;;966.97;;
39314;SDS011;28703;44.412;11.918;2023-09-12T11:40:16;1280.90;;;970.78;;
39314;SDS011;28703;44.412;11.918;2023-09-12T11:42:47;1267.95;;;962.70;;
39314;SDS011;28703;44.412;11.918;2023-09-12T11:45:17;1247.72;;;959.13;;
39314;SDS011;28703;44.412;11.918;2023-09-12T11:47:45;1121.15;;;930.25;;
39314;SDS011;28703;44.412;11.918;2023-09-12T11:50:30;1062.03;;;905.65;;
39314;SDS011;28703;44.412;11.918;2023-09-12T11:55:25;1033.63;;;893.72;;
39314;SDS011;28703;44.412;11.918;2023-09-12T11:57:51;1001.70;;;890.70;;
39314;SDS011;28703;44.412;11.918;2023-09-12T12:00:18;979.80;;;870.55;;
39314;SDS011;28703;44.412;11.918;2023-09-12T12:02:45;980.78;;;873.22;;
39314;SDS011;28703;44.412;11.918;2023-09-12T12:05:12;969.53;;;865.75;;
39314;SDS011;28703;44.412;11.918;2023-09-12T12:07:38;924.50;;;830.03;;
39314;SDS011;28703;44.412;11.918;2023-09-12T12:10:04;928.00;;;832.90;;
39314;SDS011;28703;44.412;11.918;2023-09-12T12:12:31;894.42;;;805.53;;
39314;SDS011;28703;44.412;11.918;2023-09-12T12:14:57;913.10;;;821.67;;
39314;SDS011;28703;44.412;11.918;2023-09-12T12:17:23;921.95;;;830.25;;
39314;SDS011;28703;44.412;11.918;2023-09-12T12:19:49;868.72;;;783.50;;
39314;SDS011;28703;44.412;11.918;2023-09-12T12:22:15;853.85;;;774.15;;
39314;SDS011;28703;44.412;11.918;2023-09-12T12:24:43;830.28;;;752.67;;
39314;SDS011;28703;44.412;11.918;2023-09-12T12:27:11;868.58;;;784.58;;
39314;SDS011;28703;44.412;11.918;2023-09-12T12:29:37;853.13;;;773.45;;
39314;SDS011;28703;44.412;11.918;2023-09-12T12:32:08;853.40;;;774.42;;
39314;SDS011;28703;44.412;11.918;2023-09-12T12:34:35;841.53;;;764.75;;
39314;SDS011;28703;44.412;11.918;2023-09-12T12:37:02;811.75;;;737.78;;
39314;SDS011;28703;44.412;11.918;2023-09-12T12:39:28;799.20;;;728.40;;
39314;SDS011;28703;44.412;11.918;2023-09-12T12:41:54;788.53;;;720.47;;
39314;SDS011;28703;44.412;11.918;2023-09-12T12:44:21;799.58;;;728.85;;
39314;SDS011;28703;44.412;11.918;2023-09-12T12:46:51;777.10;;;710.42;;
39314;SDS011;28703;44.412;11.918;2023-09-12T12:49:18;759.25;;;693.92;;
39314;SDS011;28703;44.412;11.918;2023-09-12T12:51:45;756.25;;;690.92;;
39314;SDS011;28703;44.412;11.918;2023-09-12T12:54:12;692.35;;;634.50;;
39314;SDS011;28703;44.412;11.918;2023-09-12T12:56:38;682.00;;;624.88;;
39314;SDS011;28703;44.412;11.918;2023-09-12T12:59:05;641.95;;;587.85;;
39314;SDS011;28703;44.412;11.918;2023-09-12T13:01:37;606.60;;;555.03;;
39314;SDS011;28703;44.412;11.918;2023-09-12T13:04:07;685.17;;;627.35;;
39314;SDS011;28703;44.412;11.918;2023-09-12T13:06:33;680.53;;;623.03;;
39314;SDS011;28703;44.412;11.918;2023-09-12T13:09:03;646.58;;;592.10;;
39314;SDS011;28703;44.412;11.918;2023-09-12T13:11:33;576.95;;;527.33;;
39314;SDS011;28703;44.412;11.918;2023-09-12T13:14:03;561.53;;;513.45;;
39314;SDS011;28703;44.412;11.918;2023-09-12T13:16:36;503.02;;;459.15;;
39314;SDS011;28703;44.412;11.918;2023-09-12T13:19:02;494.83;;;451.67;;
39314;SDS011;28703;44.412;11.918;2023-09-12T13:21:29;530.47;;;485.40;;
39314;SDS011;28703;44.412;11.918;2023-09-12T13:23:57;542.25;;;495.85;;
39314;SDS011;28703;44.412;11.918;2023-09-12T13:26:23;479.08;;;438.00;;
39314;SDS011;28703;44.412;11.918;2023-09-12T13:28:49;463.33;;;423.83;;
39314;SDS011;28703;44.412;11.918;2023-09-12T13:31:15;398.80;;;364.38;;
39314;SDS011;28703;44.412;11.918;2023-09-12T13:33:40;496.38;;;453.63;;
39314;SDS011;28703;44.412;11.918;2023-09-12T13:36:07;340.73;;;311.75;;
39314;SDS011;28703;44.412;11.918;2023-09-12T13:38:34;390.17;;;356.48;;
39314;SDS011;28703;44.412;11.918;2023-09-12T13:41:00;363.00;;;331.25;;
39314;SDS011;28703;44.412;11.918;2023-09-12T13:43:26;335.40;;;306.85;;
39314;SDS011;28703;44.412;11.918;2023-09-12T13:45:53;316.10;;;289.52;;
39314;SDS011;28703;44.412;11.918;2023-09-12T13:48:19;331.52;;;303.85;;
39314;SDS011;28703;44.412;11.918;2023-09-12T13:50:45;306.85;;;280.35;;
39314;SDS011;28703;44.412;11.918;2023-09-12T13:53:11;316.58;;;291.98;;
39314;SDS011;28703;44.412;11.918;2023-09-12T13:55:37;321.75;;;296.10;;
39314;SDS011;28703;44.412;11.918;2023-09-12T13:58:03;320.27;;;296.60;;
39314;SDS011;28703;44.412;11.918;2023-09-12T14:00:31;331.67;;;307.83;;
39314;SDS011;28703;44.412;11.918;2023-09-12T14:02:57;500.92;;;465.63;;
39314;SDS011;28703;44.412;11.918;2023-09-12T14:05:23;519.65;;;483.27;;
39314;SDS011;28703;44.412;11.918;2023-09-12T14:07:50;504.58;;;467.63;;